METAR Data
IDs: Format: Raw Decoded Include TAF

Data at: 1437 UTC 25 Jan 2020

METAR for:KTNU (Newton Muni, IA, US)
Text:KTNU 251435Z AUTO 29012KT 8SM OVC011 M02/M02 A3000 RMK A01
Temperature: -2.0°C ( 28°F)
Dewpoint: -2.0°C ( 28°F) [RH = 100%]
Pressure (altimeter):30.00 inches Hg (1016.0 mb)
Winds:from the WNW (290 degrees) at 14 MPH (12 knots; 6.2 m/s)
Visibility: 8 sm ( 13 km)
Ceiling:1100 feet AGL
Clouds: overcast cloud deck at 1100 feet AGL
QC Flag:automated observation with no human augmentation